createdAt,value
2019-01-30T00:00:08.853Z,0.00
2019-01-30T00:01:08.778Z,0.00
2019-01-30T00:02:08.758Z,0.00
2019-01-30T00:03:08.693Z,0.00
2019-01-30T00:04:08.644Z,0.00
2019-01-30T00:05:08.595Z,0.00
2019-01-30T00:06:08.659Z,0.00
2019-01-30T00:07:08.504Z,0.00
2019-01-30T00:08:08.494Z,0.00
2019-01-30T00:09:08.404Z,0.00
2019-01-30T00:10:08.367Z,0.00
2019-01-30T00:11:08.313Z,0.00
2019-01-30T00:12:09.831Z,0.00
2019-01-30T00:13:08.241Z,0.00
2019-01-30T00:14:08.191Z,0.00
2019-01-30T00:15:08.110Z,0.00
2019-01-30T00:16:08.071Z,0.00
2019-01-30T00:17:08.022Z,0.00
2019-01-30T00:18:07.991Z,0.00
2019-01-30T00:19:07.956Z,0.00
2019-01-30T00:20:07.890Z,0.00
2019-01-30T00:21:07.833Z,0.00
2019-01-30T00:22:07.806Z,0.00
2019-01-30T00:23:07.864Z,0.00
2019-01-30T00:24:07.700Z,0.00
2019-01-30T00:25:07.668Z,0.00
2019-01-30T00:26:07.611Z,0.00
2019-01-30T00:27:07.580Z,0.00
2019-01-30T00:28:07.522Z,0.00
2019-01-30T00:29:07.494Z,0.00
2019-01-30T00:30:07.423Z,0.00
2019-01-30T00:31:07.366Z,0.00
2019-01-30T00:32:07.333Z,0.00
2019-01-30T00:33:07.285Z,0.00
2019-01-30T00:34:07.237Z,0.00
2019-01-30T00:35:07.214Z,0.00
2019-01-30T00:36:07.128Z,0.00
2019-01-30T00:37:07.076Z,0.00
2019-01-30T00:38:07.034Z,0.00
2019-01-30T00:39:07.002Z,0.00
2019-01-30T00:40:06.970Z,0.00
2019-01-30T00:41:06.897Z,0.00
2019-01-30T00:42:06.858Z,0.00
2019-01-30T00:43:06.824Z,0.00
2019-01-30T00:44:06.764Z,0.00
2019-01-30T00:45:06.736Z,0.00
2019-01-30T00:46:06.659Z,0.00
2019-01-30T00:47:15.545Z,0.00
2019-01-30T00:48:06.582Z,0.00
2019-01-30T00:49:06.521Z,0.00
2019-01-30T00:50:06.498Z,0.00
2019-01-30T00:51:06.422Z,0.00
2019-01-30T00:52:06.377Z,0.00
2019-01-30T00:53:06.314Z,0.00
2019-01-30T00:54:06.286Z,0.00
2019-01-30T00:55:06.261Z,0.00
2019-01-30T00:56:06.180Z,0.00
2019-01-30T00:57:06.143Z,0.00
2019-01-30T00:58:06.102Z,0.00
2019-01-30T00:59:06.043Z,0.00
2019-01-30T01:00:14.382Z,0.00
2019-01-30T01:01:05.964Z,0.00
2019-01-30T01:02:05.915Z,0.00
2019-01-30T01:03:05.847Z,0.00
2019-01-30T01:04:05.802Z,0.00
2019-01-30T01:05:05.800Z,0.00
2019-01-30T01:06:05.717Z,0.00
2019-01-30T01:07:05.792Z,0.00
2019-01-30T01:08:05.643Z,0.00
2019-01-30T01:09:05.575Z,0.00
2019-01-30T01:10:05.531Z,0.00
2019-01-30T01:11:05.505Z,0.00
2019-01-30T01:12:05.467Z,0.00
2019-01-30T01:13:05.394Z,0.00
2019-01-30T01:14:05.359Z,0.00
2019-01-30T01:15:05.288Z,0.00
2019-01-30T01:16:05.270Z,0.00
2019-01-30T01:17:05.186Z,0.00
2019-01-30T01:18:05.146Z,0.00
2019-01-30T01:19:05.110Z,0.00
2019-01-30T01:20:05.063Z,0.00
2019-01-30T01:21:05.044Z,0.00
2019-01-30T01:22:04.953Z,0.00
2019-01-30T01:23:04.917Z,0.00
2019-01-30T01:24:04.869Z,0.00
2019-01-30T01:25:04.813Z,0.00
2019-01-30T01:26:04.782Z,0.00
2019-01-30T01:27:04.758Z,0.00
2019-01-30T01:28:04.678Z,0.00
2019-01-30T01:29:04.636Z,0.00
2019-01-30T01:30:04.584Z,0.00
2019-01-30T01:31:04.540Z,0.00
2019-01-30T01:32:04.517Z,0.00
2019-01-30T01:33:04.472Z,0.00
2019-01-30T01:34:04.393Z,0.00
2019-01-30T01:35:04.355Z,0.00
2019-01-30T01:36:04.296Z,0.00
2019-01-30T01:37:04.268Z,0.00
2019-01-30T01:38:04.251Z,0.00
2019-01-30T01:39:04.170Z,0.00
2019-01-30T01:40:04.115Z,0.00
2019-01-30T01:41:04.060Z,0.00
2019-01-30T01:42:04.017Z,0.00
2019-01-30T01:43:04.007Z,0.00
2019-01-30T01:44:03.918Z,0.00
2019-01-30T01:45:03.873Z,0.00
2019-01-30T01:46:03.830Z,0.00
2019-01-30T01:47:03.780Z,0.00
2019-01-30T01:48:03.745Z,0.00
2019-01-30T01:49:03.689Z,0.00
2019-01-30T01:50:03.641Z,0.00
2019-01-30T01:51:03.594Z,0.00
2019-01-30T01:52:03.556Z,0.00
2019-01-30T01:53:03.561Z,0.00
2019-01-30T01:54:03.439Z,0.00
2019-01-30T01:55:03.393Z,0.00
2019-01-30T01:56:03.349Z,0.00
2019-01-30T01:57:03.322Z,0.00
2019-01-30T01:58:03.280Z,0.00
2019-01-30T01:59:03.237Z,0.00
2019-01-30T02:00:03.159Z,0.00
2019-01-30T02:01:03.106Z,0.00
2019-01-30T02:02:03.073Z,0.00
2019-01-30T02:03:03.056Z,0.00
2019-01-30T02:04:03.004Z,0.00
2019-01-30T02:05:02.948Z,0.00
2019-01-30T02:06:02.874Z,0.00
2019-01-30T02:07:02.834Z,0.00
2019-01-30T02:08:02.801Z,0.00
2019-01-30T02:09:02.739Z,0.00
2019-01-30T02:10:02.704Z,0.00
2019-01-30T02:11:02.662Z,0.00
2019-01-30T02:12:02.600Z,0.00
2019-01-30T02:13:02.550Z,0.00
2019-01-30T02:14:02.528Z,0.00
2019-01-30T02:15:02.440Z,0.00
2019-01-30T02:16:02.404Z,0.00
2019-01-30T02:17:02.362Z,0.00
2019-01-30T02:18:02.327Z,0.00
2019-01-30T02:19:02.299Z,0.00
2019-01-30T02:20:02.220Z,0.00
2019-01-30T02:21:02.172Z,0.00
2019-01-30T02:22:02.136Z,0.00
2019-01-30T02:23:02.116Z,0.00
2019-01-30T02:24:02.039Z,0.00
2019-01-30T02:25:01.975Z,0.00
2019-01-30T02:26:01.934Z,0.00
2019-01-30T02:27:01.891Z,0.00
2019-01-30T02:28:01.870Z,0.00
2019-01-30T02:29:01.882Z,0.00
2019-01-30T02:30:01.738Z,0.00
2019-01-30T02:31:01.698Z,0.00
2019-01-30T02:32:01.672Z,0.00
2019-01-30T02:33:01.630Z,0.00
2019-01-30T02:34:01.552Z,0.00
2019-01-30T02:35:01.517Z,0.00
2019-01-30T02:36:01.452Z,0.00
2019-01-30T02:37:01.423Z,0.00
2019-01-30T02:38:01.369Z,0.00
2019-01-30T02:39:01.337Z,0.00
2019-01-30T02:40:01.387Z,0.00
2019-01-30T02:41:01.228Z,0.00
2019-01-30T02:42:01.173Z,0.00
2019-01-30T02:43:01.160Z,0.00
2019-01-30T02:44:01.104Z,0.00
2019-01-30T02:45:01.043Z,0.00
2019-01-30T02:46:01.023Z,0.00
2019-01-30T02:47:00.940Z,0.00
2019-01-30T02:48:00.897Z,0.00
2019-01-30T02:49:00.872Z,0.00
2019-01-30T02:50:00.792Z,0.00
2019-01-30T02:51:00.737Z,0.00
2019-01-30T02:52:00.702Z,0.00
2019-01-30T02:53:00.646Z,0.00
2019-01-30T02:54:00.643Z,0.00
2019-01-30T02:55:00.579Z,0.00
2019-01-30T02:56:00.522Z,0.00
2019-01-30T02:57:00.464Z,0.00
2019-01-30T02:58:00.418Z,0.00
2019-01-30T02:59:00.399Z,0.00
2019-01-30T03:00:00.318Z,0.00
2019-01-30T03:01:00.261Z,0.00
2019-01-30T03:02:00.221Z,0.00
2019-01-30T03:03:00.207Z,0.00
2019-01-30T03:04:00.177Z,0.00
2019-01-30T03:05:00.097Z,0.00
2019-01-30T03:06:00.036Z,0.00
2019-01-30T03:06:59.986Z,0.00
2019-01-30T03:07:59.953Z,0.00
2019-01-30T03:08:59.929Z,0.00
2019-01-30T03:09:59.859Z,0.00
2019-01-30T03:10:59.796Z,0.00
2019-01-30T03:11:59.750Z,0.00
2019-01-30T03:12:59.736Z,0.00
2019-01-30T03:13:59.699Z,0.00
2019-01-30T03:14:59.623Z,0.00
2019-01-30T03:15:59.573Z,0.00
2019-01-30T03:16:59.520Z,0.00
2019-01-30T03:17:59.473Z,0.00
2019-01-30T03:18:59.452Z,0.00
2019-01-30T03:19:59.395Z,0.00
2019-01-30T03:20:59.330Z,0.00
2019-01-30T03:21:59.286Z,0.00
2019-01-30T03:22:59.227Z,0.00
2019-01-30T03:23:59.184Z,0.00
2019-01-30T03:24:59.151Z,0.00
2019-01-30T03:25:59.089Z,0.00
2019-01-30T03:26:59.040Z,0.00
2019-01-30T03:27:58.998Z,0.00
2019-01-30T03:28:58.945Z,0.00
2019-01-30T03:29:58.919Z,0.00
2019-01-30T03:31:15.829Z,0.00
2019-01-30T03:31:58.826Z,0.00
2019-01-30T03:32:59.040Z,0.00
2019-01-30T03:33:58.720Z,0.00
2019-01-30T03:34:58.669Z,0.00
2019-01-30T03:35:58.634Z,0.00
2019-01-30T03:36:58.557Z,0.00
2019-01-30T03:37:58.525Z,0.00
2019-01-30T03:38:58.468Z,0.00
2019-01-30T03:39:58.566Z,0.00
2019-01-30T03:40:58.408Z,0.00
2019-01-30T03:41:58.321Z,0.00
2019-01-30T03:42:58.270Z,0.00
2019-01-30T03:43:58.224Z,0.00
2019-01-30T03:44:58.193Z,0.00
2019-01-30T03:46:06.986Z,0.00
2019-01-30T03:46:58.085Z,0.00
2019-01-30T03:47:58.030Z,0.00
2019-01-30T03:48:57.980Z,0.00
2019-01-30T03:49:57.942Z,0.00
2019-01-30T03:50:57.893Z,0.00
2019-01-30T03:51:57.861Z,0.00
2019-01-30T03:52:57.788Z,0.00
2019-01-30T03:53:57.756Z,0.00
2019-01-30T03:54:57.719Z,0.00
2019-01-30T03:55:57.650Z,0.00
2019-01-30T03:56:57.630Z,0.00
2019-01-30T03:57:57.565Z,0.00
2019-01-30T03:58:57.514Z,0.00
2019-01-30T03:59:57.458Z,0.00
2019-01-30T04:00:57.406Z,0.00
2019-01-30T04:01:57.386Z,0.00
2019-01-30T04:02:57.314Z,0.00
2019-01-30T04:03:57.274Z,0.00
2019-01-30T04:04:57.221Z,0.00
2019-01-30T04:05:57.175Z,0.00
2019-01-30T04:06:57.139Z,0.00
2019-01-30T04:07:57.103Z,0.00
2019-01-30T04:08:57.035Z,0.00
2019-01-30T04:09:56.990Z,0.00
2019-01-30T04:10:56.944Z,0.00
2019-01-30T04:11:56.884Z,0.00
2019-01-30T04:12:56.871Z,0.00
2019-01-30T04:13:56.791Z,0.00
2019-01-30T04:14:56.742Z,0.00
2019-01-30T04:15:56.702Z,0.00
2019-01-30T04:16:56.667Z,0.00
2019-01-30T04:17:56.607Z,0.00
2019-01-30T04:18:56.598Z,0.00
2019-01-30T04:19:56.508Z,0.00
2019-01-30T04:20:56.470Z,0.00
2019-01-30T04:21:56.416Z,0.00
2019-01-30T04:22:56.371Z,0.00
2019-01-30T04:23:56.319Z,0.00
2019-01-30T04:24:56.295Z,0.00
2019-01-30T04:25:56.223Z,0.00
2019-01-30T04:26:56.180Z,0.00
2019-01-30T04:27:56.137Z,0.00
2019-01-30T04:28:56.087Z,0.00
2019-01-30T04:29:56.041Z,0.00
2019-01-30T04:30:56.021Z,0.00
2019-01-30T04:31:55.942Z,0.00
2019-01-30T04:32:55.896Z,0.00
2019-01-30T04:33:55.873Z,0.00
2019-01-30T04:34:55.816Z,0.00
2019-01-30T04:35:55.758Z,0.00
2019-01-30T04:36:55.711Z,0.00
2019-01-30T04:37:55.653Z,0.00
2019-01-30T04:38:55.613Z,0.00
2019-01-30T04:39:55.600Z,0.00
2019-01-30T04:40:55.524Z,0.00
2019-01-30T04:41:55.473Z,0.00
2019-01-30T04:42:55.432Z,0.00
2019-01-30T04:43:55.375Z,0.00
2019-01-30T04:44:55.350Z,0.00
2019-01-30T04:45:55.283Z,0.00
2019-01-30T04:46:55.235Z,0.00
2019-01-30T04:47:55.194Z,0.00
2019-01-30T04:48:55.149Z,0.00
2019-01-30T04:49:55.123Z,0.00
2019-01-30T04:50:55.055Z,0.00
2019-01-30T04:51:54.992Z,0.00
2019-01-30T04:52:54.947Z,0.00
2019-01-30T04:53:54.911Z,0.00
2019-01-30T04:54:54.859Z,0.00
2019-01-30T04:55:54.840Z,0.00
2019-01-30T04:56:54.758Z,0.00
2019-01-30T04:57:54.712Z,0.00
2019-01-30T04:58:54.667Z,0.00
2019-01-30T04:59:54.627Z,0.00
2019-01-30T05:00:54.606Z,0.00
2019-01-30T05:01:54.536Z,0.00
2019-01-30T05:02:54.493Z,0.00
2019-01-30T05:03:54.436Z,0.00
2019-01-30T05:04:54.380Z,0.00
2019-01-30T05:05:54.337Z,0.00
2019-01-30T05:06:54.316Z,0.00
2019-01-30T05:07:54.267Z,0.00
2019-01-30T05:08:55.969Z,0.00
2019-01-30T05:09:54.158Z,0.00
2019-01-30T05:10:54.099Z,0.00
2019-01-30T05:11:54.055Z,0.00
2019-01-30T05:12:54.035Z,0.00
2019-01-30T05:13:53.966Z,0.00
2019-01-30T05:14:53.918Z,0.00
2019-01-30T05:15:53.862Z,0.00
2019-01-30T05:16:53.864Z,0.00
2019-01-30T05:17:53.770Z,0.00
2019-01-30T05:18:53.722Z,0.00
2019-01-30T05:19:53.687Z,0.00
2019-01-30T05:20:53.635Z,0.00
2019-01-30T05:21:53.588Z,0.00
2019-01-30T05:22:53.568Z,0.00
2019-01-30T05:23:53.486Z,0.00
2019-01-30T05:24:53.478Z,0.00
2019-01-30T05:25:53.399Z,0.00
2019-01-30T05:26:53.365Z,0.00
2019-01-30T05:27:53.325Z,0.00
2019-01-30T05:28:53.250Z,0.00
2019-01-30T05:29:53.207Z,0.00
2019-01-30T05:30:53.164Z,0.00
2019-01-30T05:32:00.879Z,0.00
2019-01-30T05:32:53.099Z,0.00
2019-01-30T05:33:53.022Z,0.00
2019-01-30T05:34:52.978Z,0.00
2019-01-30T05:35:52.919Z,0.00
2019-01-30T05:36:52.870Z,0.00
2019-01-30T05:37:52.851Z,0.00
2019-01-30T05:38:52.806Z,0.00
2019-01-30T05:39:52.736Z,0.00
2019-01-30T05:40:52.697Z,0.00
2019-01-30T05:41:52.652Z,0.00
2019-01-30T05:42:52.588Z,0.00
2019-01-30T05:43:52.571Z,0.00
2019-01-30T05:44:52.501Z,0.00
2019-01-30T05:45:52.456Z,0.00
2019-01-30T05:46:52.405Z,0.00
2019-01-30T05:47:52.356Z,0.00
2019-01-30T05:48:52.329Z,0.00
2019-01-30T05:49:52.262Z,0.00
2019-01-30T05:50:52.213Z,0.00
2019-01-30T05:51:52.173Z,0.00
2019-01-30T05:52:52.126Z,0.00
2019-01-30T05:53:52.127Z,0.00
2019-01-30T05:54:52.028Z,0.00
2019-01-30T05:55:51.982Z,0.00
2019-01-30T05:56:51.926Z,0.00
2019-01-30T05:57:51.893Z,0.00
2019-01-30T05:58:51.840Z,0.00
2019-01-30T05:59:51.811Z,0.00
2019-01-30T06:00:51.748Z,0.00
2019-01-30T06:01:51.691Z,0.00
2019-01-30T06:02:51.646Z,0.00
2019-01-30T06:03:51.603Z,0.00
2019-01-30T06:04:51.563Z,0.00
2019-01-30T06:05:51.534Z,0.00
2019-01-30T06:06:51.458Z,0.00
2019-01-30T06:07:51.408Z,0.00
2019-01-30T06:08:51.362Z,0.00
2019-01-30T06:09:51.340Z,0.00
2019-01-30T06:10:51.265Z,0.00
2019-01-30T06:11:51.222Z,0.00
2019-01-30T06:12:51.194Z,0.00
2019-01-30T06:13:51.127Z,0.00
2019-01-30T06:14:51.076Z,0.00
2019-01-30T06:15:51.073Z,0.00
2019-01-30T06:16:50.990Z,0.00
2019-01-30T06:17:50.944Z,0.00
2019-01-30T06:18:50.890Z,0.00
2019-01-30T06:19:50.863Z,0.00
2019-01-30T06:20:50.818Z,0.00
2019-01-30T06:21:50.745Z,0.00
2019-01-30T06:22:50.695Z,0.00
2019-01-30T06:23:50.662Z,0.00
2019-01-30T06:24:50.699Z,0.00
2019-01-30T06:25:50.601Z,0.00
2019-01-30T06:26:50.534Z,0.00
2019-01-30T06:27:50.460Z,0.00
2019-01-30T06:28:50.413Z,0.00
2019-01-30T06:29:50.446Z,0.00
2019-01-30T06:30:50.337Z,0.00
2019-01-30T06:31:50.294Z,0.00
2019-01-30T06:32:50.246Z,0.00
2019-01-30T06:33:50.178Z,0.00
2019-01-30T06:34:50.130Z,0.00
2019-01-30T06:35:50.091Z,0.00
2019-01-30T06:36:50.157Z,0.00
2019-01-30T06:37:49.995Z,0.00
2019-01-30T06:38:49.946Z,0.00
2019-01-30T06:39:49.890Z,0.00
2019-01-30T06:40:49.846Z,0.00
2019-01-30T06:41:49.818Z,0.00
2019-01-30T06:42:49.755Z,0.00
2019-01-30T06:43:49.707Z,0.00
2019-01-30T06:44:49.663Z,0.00
2019-01-30T06:45:49.610Z,0.00
2019-01-30T06:46:49.594Z,0.00
2019-01-30T06:47:49.518Z,0.00
2019-01-30T06:48:49.472Z,0.00
2019-01-30T06:49:49.426Z,0.00
2019-01-30T06:50:49.379Z,0.00
2019-01-30T06:51:49.322Z,0.00
2019-01-30T06:52:49.300Z,0.00
2019-01-30T06:53:49.228Z,0.00
2019-01-30T06:54:49.188Z,0.00
2019-01-30T06:55:49.140Z,0.00
2019-01-30T06:56:49.098Z,0.00
2019-01-30T06:57:49.087Z,0.00
2019-01-30T06:58:49.000Z,0.00
2019-01-30T06:59:48.947Z,0.00
2019-01-30T07:00:48.899Z,0.00
2019-01-30T07:01:48.864Z,0.00
2019-01-30T07:02:48.850Z,0.00
2019-01-30T07:03:48.756Z,0.00
2019-01-30T07:04:48.709Z,0.00
2019-01-30T07:05:48.689Z,0.00
2019-01-30T07:06:48.638Z,0.00
2019-01-30T07:07:48.615Z,0.00
2019-01-30T07:08:48.618Z,0.00
2019-01-30T07:09:48.504Z,5.63
2019-01-30T07:10:48.461Z,5.63
2019-01-30T07:11:48.378Z,5.63
2019-01-30T07:12:48.330Z,5.63
2019-01-30T07:13:48.302Z,5.63
2019-01-30T07:14:48.237Z,5.63
2019-01-30T07:15:48.193Z,5.63
2019-01-30T07:16:48.154Z,5.63
2019-01-30T07:17:48.091Z,5.63
2019-01-30T07:18:48.072Z,5.63
2019-01-30T07:19:48.004Z,11.25
2019-01-30T07:20:47.959Z,11.25
2019-01-30T07:21:47.944Z,11.25
2019-01-30T07:22:47.864Z,11.25
2019-01-30T07:23:47.827Z,11.25
2019-01-30T07:24:47.760Z,11.25
2019-01-30T07:25:47.714Z,11.25
2019-01-30T07:26:47.666Z,11.25
2019-01-30T07:27:47.627Z,11.25
2019-01-30T07:28:47.607Z,11.25
2019-01-30T07:29:47.531Z,11.25
2019-01-30T07:30:47.494Z,11.25
2019-01-30T07:31:47.439Z,11.25
2019-01-30T07:32:47.386Z,11.25
2019-01-30T07:33:47.366Z,11.25
2019-01-30T07:34:47.292Z,11.25
2019-01-30T07:35:47.277Z,11.25
2019-01-30T07:36:47.195Z,16.88
2019-01-30T07:37:47.150Z,16.88
2019-01-30T07:38:47.099Z,16.88
2019-01-30T07:39:47.067Z,16.88
2019-01-30T07:40:47.043Z,16.88
2019-01-30T07:41:46.968Z,22.50
2019-01-30T07:42:46.918Z,22.50
2019-01-30T07:43:46.895Z,22.50
2019-01-30T07:44:50.891Z,22.50
2019-01-30T07:45:46.773Z,22.50
2019-01-30T07:46:46.722Z,22.50
2019-01-30T07:47:46.682Z,22.50
2019-01-30T07:48:46.636Z,22.50
2019-01-30T07:49:46.603Z,28.13
2019-01-30T07:50:46.538Z,28.13
2019-01-30T07:51:46.596Z,28.13
2019-01-30T07:52:46.453Z,28.13
2019-01-30T07:53:46.401Z,28.13
2019-01-30T07:54:46.381Z,28.13
2019-01-30T07:55:46.298Z,28.13
2019-01-30T07:56:46.256Z,28.13
2019-01-30T07:57:46.209Z,28.13
2019-01-30T07:58:46.156Z,28.13
2019-01-30T07:59:46.119Z,28.13
2019-01-30T08:00:46.098Z,28.13
2019-01-30T08:01:46.024Z,28.13
2019-01-30T08:02:52.961Z,28.13
2019-01-30T08:03:45.924Z,22.50
2019-01-30T08:04:45.908Z,22.50
2019-01-30T08:05:45.868Z,22.50
2019-01-30T08:06:45.791Z,22.50
2019-01-30T08:07:45.739Z,22.50
2019-01-30T08:08:45.694Z,16.88
2019-01-30T08:09:45.640Z,22.50
2019-01-30T08:10:45.620Z,22.50
2019-01-30T08:11:45.559Z,22.50
2019-01-30T08:12:45.508Z,22.50
2019-01-30T08:13:45.459Z,22.50
2019-01-30T08:14:45.410Z,22.50
2019-01-30T08:15:45.355Z,22.50
2019-01-30T08:16:47.846Z,22.50
2019-01-30T08:17:45.311Z,28.13
2019-01-30T08:18:45.212Z,28.13
2019-01-30T08:19:45.174Z,33.75
2019-01-30T08:20:45.127Z,33.75
2019-01-30T08:21:45.110Z,33.75
2019-01-30T08:22:45.031Z,33.75
2019-01-30T08:23:45.298Z,33.75
2019-01-30T08:24:44.950Z,33.75
2019-01-30T08:25:44.946Z,33.75
2019-01-30T08:26:44.891Z,33.75
2019-01-30T08:27:44.908Z,39.38
2019-01-30T08:28:45.103Z,39.38
2019-01-30T08:29:44.691Z,39.38
2019-01-30T08:30:44.694Z,39.38
2019-01-30T08:31:44.725Z,45.00
2019-01-30T08:32:44.877Z,45.00
2019-01-30T08:33:44.510Z,45.00
2019-01-30T08:34:44.464Z,45.00
2019-01-30T08:35:44.406Z,45.00
2019-01-30T08:36:44.364Z,45.00
2019-01-30T08:37:45.918Z,45.00
2019-01-30T08:38:44.301Z,50.63
2019-01-30T08:39:44.220Z,50.63
2019-01-30T08:40:44.170Z,50.63
2019-01-30T08:41:44.131Z,50.63
2019-01-30T08:42:44.081Z,50.63
2019-01-30T08:43:44.065Z,50.63
2019-01-30T08:44:47.137Z,50.63
2019-01-30T08:45:43.946Z,50.63
2019-01-30T08:46:43.892Z,50.63
2019-01-30T08:47:43.887Z,50.63
2019-01-30T08:48:43.792Z,50.63
2019-01-30T08:49:43.797Z,50.63
2019-01-30T08:50:43.896Z,50.63
2019-01-30T08:51:43.659Z,50.63
2019-01-30T08:52:43.611Z,50.63
2019-01-30T08:53:44.112Z,50.63
2019-01-30T08:54:43.793Z,50.63
2019-01-30T08:55:43.728Z,50.63
2019-01-30T08:56:52.329Z,50.63
2019-01-30T08:57:43.652Z,56.25
2019-01-30T08:58:43.781Z,56.25
2019-01-30T08:59:43.540Z,56.25
2019-01-30T09:00:43.498Z,56.25
2019-01-30T09:01:43.378Z,50.63
2019-01-30T09:02:43.271Z,50.63
2019-01-30T09:03:43.124Z,56.25
2019-01-30T09:04:43.200Z,56.25
2019-01-30T09:05:43.000Z,56.25
2019-01-30T09:06:42.951Z,56.25
2019-01-30T09:07:44.316Z,56.25
2019-01-30T09:08:42.850Z,56.25
2019-01-30T09:09:42.837Z,56.25
2019-01-30T09:10:42.818Z,61.88
2019-01-30T09:11:52.022Z,61.88
2019-01-30T09:12:42.659Z,67.50
2019-01-30T09:13:42.622Z,73.13
2019-01-30T09:14:42.593Z,78.75
2019-01-30T09:15:42.540Z,84.38
2019-01-30T09:16:42.473Z,95.63
2019-01-30T09:17:42.446Z,101.25
2019-01-30T09:18:42.385Z,101.25
2019-01-30T09:19:42.336Z,112.50
2019-01-30T09:20:42.318Z,118.13
2019-01-30T09:21:42.237Z,123.75
2019-01-30T09:22:42.212Z,135.00
2019-01-30T09:23:42.336Z,140.63
2019-01-30T09:24:42.101Z,146.25
2019-01-30T09:25:42.056Z,151.88
2019-01-30T09:26:42.001Z,157.50
2019-01-30T09:27:41.980Z,163.13
2019-01-30T09:28:41.920Z,163.13
2019-01-30T09:29:41.866Z,163.13
2019-01-30T09:30:41.819Z,157.50
2019-01-30T09:31:41.797Z,151.88
2019-01-30T09:32:41.753Z,151.88
2019-01-30T09:33:41.691Z,157.50
2019-01-30T09:34:41.685Z,163.13
2019-01-30T09:35:41.579Z,157.50
2019-01-30T09:36:41.558Z,151.88
2019-01-30T09:37:41.495Z,140.63
2019-01-30T09:38:41.581Z,135.00
2019-01-30T09:39:41.393Z,129.38
2019-01-30T09:40:41.357Z,129.38
2019-01-30T09:41:41.340Z,123.75
2019-01-30T09:42:41.259Z,123.75
2019-01-30T09:43:41.217Z,118.13
2019-01-30T09:44:41.184Z,118.13
2019-01-30T09:45:41.168Z,118.13
2019-01-30T09:48:20.720Z,112.50
2019-01-30T09:49:20.456Z,112.50
2019-01-30T09:50:20.152Z,112.50
2019-01-30T09:51:19.953Z,112.50
2019-01-30T09:52:26.711Z,118.13
2019-01-30T09:53:19.881Z,118.13
2019-01-30T09:54:19.791Z,123.75
2019-01-30T09:55:19.804Z,123.75
2019-01-30T09:56:19.689Z,135.00
2019-01-30T09:57:19.774Z,135.00
2019-01-30T09:58:19.724Z,129.38
2019-01-30T09:59:19.604Z,129.38
2019-01-30T10:00:19.552Z,129.38
2019-01-30T10:01:19.449Z,129.38
2019-01-30T10:02:19.379Z,129.38
2019-01-30T10:03:19.376Z,135.00
2019-01-30T10:04:19.642Z,129.38
2019-01-30T10:05:19.380Z,123.75
2019-01-30T10:06:19.358Z,118.13
2019-01-30T10:07:19.304Z,118.13
2019-01-30T10:08:19.158Z,123.75
2019-01-30T10:09:19.399Z,129.38
2019-01-30T10:10:19.035Z,129.38
2019-01-30T10:11:19.125Z,123.75
2019-01-30T10:12:18.950Z,123.75
2019-01-30T10:13:18.857Z,118.13
2019-01-30T10:14:18.808Z,112.50
2019-01-30T10:15:18.806Z,118.13
2019-01-30T10:16:18.749Z,118.13
2019-01-30T10:17:18.673Z,106.88
2019-01-30T10:18:18.638Z,112.50
2019-01-30T10:19:18.582Z,118.13
2019-01-30T10:20:18.548Z,123.75
2019-01-30T10:21:18.551Z,118.13
2019-01-30T10:22:18.459Z,118.13
2019-01-30T10:23:18.421Z,123.75
2019-01-30T10:24:18.365Z,129.38
2019-01-30T10:25:18.294Z,129.38
2019-01-30T10:26:18.294Z,123.75
2019-01-30T10:27:18.219Z,135.00
2019-01-30T10:28:18.167Z,151.88
2019-01-30T10:29:18.118Z,151.88
2019-01-30T10:30:18.117Z,157.50
2019-01-30T10:31:18.028Z,163.13
2019-01-30T10:32:17.967Z,168.75
2019-01-30T10:33:17.922Z,174.38
2019-01-30T10:34:17.914Z,174.38
2019-01-30T10:35:17.856Z,185.63
2019-01-30T10:36:17.795Z,196.88
2019-01-30T10:37:17.772Z,191.25
2019-01-30T10:38:17.686Z,191.25
2019-01-30T10:39:17.642Z,196.88
2019-01-30T10:40:17.602Z,202.50
2019-01-30T10:41:17.614Z,196.88
2019-01-30T10:42:17.541Z,196.88
2019-01-30T10:43:17.478Z,191.25
2019-01-30T10:44:17.416Z,191.25
2019-01-30T10:45:17.364Z,180.00
2019-01-30T10:46:17.336Z,174.38
2019-01-30T10:47:17.278Z,163.13
2019-01-30T10:48:17.234Z,151.88
2019-01-30T10:49:17.195Z,140.63
2019-01-30T10:50:17.135Z,135.00
2019-01-30T10:51:17.112Z,123.75
2019-01-30T10:52:17.053Z,118.13
2019-01-30T10:53:17.011Z,118.13
2019-01-30T10:54:16.983Z,118.13
2019-01-30T10:55:16.927Z,123.75
2019-01-30T10:56:16.900Z,129.38
2019-01-30T10:57:16.816Z,140.63
2019-01-30T10:58:16.767Z,157.50
2019-01-30T10:59:16.721Z,185.63
2019-01-30T11:00:16.747Z,213.75
2019-01-30T11:01:16.652Z,241.88
2019-01-30T11:02:16.585Z,258.75
2019-01-30T11:03:16.534Z,281.25
2019-01-30T11:04:16.480Z,292.50
2019-01-30T11:05:16.450Z,298.13
2019-01-30T11:06:16.419Z,298.13
2019-01-30T11:07:16.360Z,292.50
2019-01-30T11:08:16.346Z,298.13
2019-01-30T11:09:16.284Z,298.13
2019-01-30T11:10:16.224Z,286.88
2019-01-30T11:11:16.182Z,281.25
2019-01-30T11:12:16.174Z,286.88
2019-01-30T11:13:16.113Z,298.13
2019-01-30T11:14:16.025Z,303.75
2019-01-30T11:15:15.991Z,298.13
2019-01-30T11:16:15.935Z,303.75
2019-01-30T11:17:15.913Z,303.75
2019-01-30T11:18:15.864Z,309.38
2019-01-30T11:19:15.802Z,315.00
2019-01-30T11:20:15.755Z,309.38
2019-01-30T11:21:15.732Z,303.75
2019-01-30T11:22:15.670Z,292.50
2019-01-30T11:23:15.654Z,286.88
2019-01-30T11:24:15.562Z,286.88
2019-01-30T11:25:15.524Z,303.75
2019-01-30T11:26:15.486Z,337.50
2019-01-30T11:27:15.436Z,354.38
2019-01-30T11:28:15.416Z,382.50
2019-01-30T11:29:15.326Z,410.63
2019-01-30T11:30:15.298Z,416.25
2019-01-30T11:31:15.261Z,410.63
2019-01-30T11:32:15.197Z,399.38
2019-01-30T11:33:15.181Z,382.50
2019-01-30T11:34:15.105Z,376.88
2019-01-30T11:35:15.082Z,371.25
2019-01-30T11:36:15.011Z,376.88
2019-01-30T11:37:14.960Z,365.63
2019-01-30T11:38:14.964Z,360.00
2019-01-30T11:39:14.875Z,337.50
2019-01-30T11:40:14.860Z,315.00
2019-01-30T11:41:14.970Z,292.50
2019-01-30T11:42:14.745Z,275.63
2019-01-30T11:43:14.698Z,270.00
2019-01-30T11:44:14.679Z,270.00
2019-01-30T11:45:14.615Z,275.63
2019-01-30T11:46:14.586Z,286.88
2019-01-30T11:47:14.549Z,286.88
2019-01-30T11:48:14.475Z,286.88
2019-01-30T11:49:14.409Z,292.50
2019-01-30T11:50:14.361Z,303.75
2019-01-30T11:51:14.319Z,326.25
2019-01-30T11:52:14.293Z,343.13
2019-01-30T11:53:14.255Z,354.38
2019-01-30T11:54:14.212Z,360.00
2019-01-30T11:55:14.161Z,360.00
2019-01-30T11:56:14.105Z,371.25
2019-01-30T11:57:14.051Z,382.50
2019-01-30T11:58:14.015Z,399.38
2019-01-30T11:59:13.965Z,416.25
2019-01-30T12:00:13.967Z,421.88
2019-01-30T12:01:13.865Z,410.63
2019-01-30T12:02:13.825Z,393.75
2019-01-30T12:03:13.777Z,371.25
2019-01-30T12:04:18.103Z,360.00
2019-01-30T12:05:13.719Z,348.75
2019-01-30T12:06:13.639Z,337.50
2019-01-30T12:07:13.599Z,326.25
2019-01-30T12:08:13.544Z,320.63
2019-01-30T12:09:13.518Z,320.63
2019-01-30T12:10:13.484Z,309.38
2019-01-30T12:11:13.427Z,292.50
2019-01-30T12:12:13.381Z,275.63
2019-01-30T12:13:13.332Z,270.00
2019-01-30T12:14:13.267Z,264.38
2019-01-30T12:15:13.260Z,264.38
2019-01-30T12:16:13.205Z,264.38
2019-01-30T12:17:13.137Z,258.75
2019-01-30T12:18:13.104Z,247.50
2019-01-30T12:19:13.062Z,241.88
2019-01-30T12:20:12.998Z,230.63
2019-01-30T12:21:12.980Z,213.75
2019-01-30T12:22:12.900Z,196.88
2019-01-30T12:23:12.885Z,180.00
2019-01-30T12:24:12.818Z,168.75
2019-01-30T12:25:12.778Z,163.13
2019-01-30T12:26:12.757Z,157.50
2019-01-30T12:27:12.686Z,157.50
2019-01-30T12:28:12.641Z,157.50
2019-01-30T12:29:12.589Z,157.50
2019-01-30T12:30:12.546Z,157.50
2019-01-30T12:31:12.542Z,163.13
2019-01-30T12:32:12.456Z,168.75
2019-01-30T12:33:12.418Z,168.75
2019-01-30T12:34:12.367Z,163.13
2019-01-30T12:35:12.322Z,157.50
2019-01-30T12:36:12.299Z,151.88
2019-01-30T12:37:12.280Z,146.25
2019-01-30T12:38:12.186Z,140.63
2019-01-30T12:39:12.141Z,135.00
2019-01-30T12:40:12.091Z,135.00
2019-01-30T12:41:12.051Z,135.00
2019-01-30T12:42:12.020Z,129.38
2019-01-30T12:43:11.994Z,129.38
2019-01-30T12:44:11.909Z,123.75
2019-01-30T12:45:11.862Z,118.13
2019-01-30T12:46:11.813Z,118.13
2019-01-30T12:47:19.707Z,118.13
2019-01-30T12:48:11.754Z,123.75
2019-01-30T12:49:11.660Z,123.75
2019-01-30T12:50:11.642Z,123.75
2019-01-30T12:51:11.579Z,123.75
2019-01-30T12:52:11.550Z,123.75
2019-01-30T12:53:11.525Z,118.13
2019-01-30T12:54:11.465Z,118.13
2019-01-30T12:55:11.414Z,118.13
2019-01-30T12:56:11.358Z,118.13
2019-01-30T12:57:11.318Z,118.13
2019-01-30T12:58:11.301Z,123.75
2019-01-30T12:59:11.211Z,123.75
2019-01-30T13:00:11.174Z,129.38